Time;durP1;ratioP1;P1;durP2;ratioP2;P2;SDS_P1;SDS_P2;PMS_P1;PMS_P2;Temp;Humidity;BMP_temperature;BMP_pressure;BME280_temperature;BME280_humidity;BME280_pressure;Samples;Min_cycle;Max_cycle;Signal;HPM_P1;HPM_P2
2022/06/07 00:00:00;;;;;;;7.10;2.47;;;;;;;18.28;56.88;93881.94;4983097;28;20075;-75
2022/06/07 00:02:29;;;;;;;3.58;2.08;;;;;;;18.23;56.97;93884.94;4981379;28;20723;-75
2022/06/07 00:04:55;;;;;;;6.32;2.95;;;;;;;18.19;57.21;93884.06;4987390;28;20116;-76
2022/06/07 00:07:22;;;;;;;3.63;2.28;;;;;;;18.16;57.58;93890.19;4983620;28;20045;-75
2022/06/07 00:09:47;;;;;;;3.80;2.10;;;;;;;18.04;57.36;93865.00;4985105;28;20038;-75
2022/06/07 00:12:13;;;;;;;3.00;1.73;;;;;;;18.00;57.27;93866.06;4982631;28;20026;-75
2022/06/07 00:14:38;;;;;;;4.47;2.33;;;;;;;18.11;57.82;93890.47;4984787;28;20014;-75
2022/06/07 00:17:05;;;;;;;5.28;2.90;;;;;;;18.08;58.13;93891.19;4987055;28;20031;-75
2022/06/07 00:19:31;;;;;;;3.22;2.20;;;;;;;18.05;58.00;93884.59;4986493;28;20027;-76
2022/06/07 00:21:57;;;;;;;3.80;2.63;;;;;;;18.07;58.22;93889.66;4983174;28;20466;-76
2022/06/07 00:24:22;;;;;;;3.75;2.40;;;;;;;18.02;58.55;93877.25;4984856;28;20108;-75
2022/06/07 00:26:48;;;;;;;3.92;2.97;;;;;;;18.07;58.81;93889.66;4984576;28;20026;-75
2022/06/07 00:29:13;;;;;;;4.85;2.17;;;;;;;17.94;58.83;93876.34;4982851;28;20045;-75
2022/06/07 00:31:40;;;;;;;4.78;2.60;;;;;;;18.07;58.92;93887.72;4982164;28;20552;-75
2022/06/07 00:34:06;;;;;;;4.53;3.00;;;;;;;18.04;59.32;93888.44;4978469;28;20473;-75
2022/06/07 00:36:32;;;;;;;4.60;2.60;;;;;;;17.86;59.50;93855.81;4982483;28;20049;-75
2022/06/07 00:38:57;;;;;;;3.95;2.90;;;;;;;18.10;59.67;93888.91;4982672;28;20057;-75
2022/06/07 00:41:23;;;;;;;7.95;2.80;;;;;;;18.04;59.76;93881.13;4985942;28;20126;-75
2022/06/07 00:44:25;;;;;;;5.15;3.03;;;;;;;18.12;59.97;93892.03;4986166;28;20066;-74
2022/06/07 00:47:11;;;;;;;7.97;2.53;;;;;;;18.10;60.47;93897.78;4989911;28;20040;-73
2022/06/07 00:50:08;;;;;;;6.22;3.95;;;;;;;18.15;60.88;93886.72;4985281;28;20511;-75
2022/06/07 00:52:35;;;;;;;4.97;3.30;;;;;;;18.21;61.11;93896.06;4981019;28;20445;-76
2022/06/07 00:55:03;;;;;;;3.65;2.92;;;;;;;18.24;61.16;93899.91;4984672;28;20627;-73
2022/06/07 00:57:29;;;;;;;4.53;3.47;;;;;;;18.19;61.40;93881.38;4989487;28;20033;-74
2022/06/07 00:59:55;;;;;;;3.63;3.30;;;;;;;18.32;61.46;93893.53;4983440;28;20066;-76
2022/06/07 01:02:21;;;;;;;7.25;3.20;;;;;;;18.38;61.19;93895.56;4982324;28;20503;-76
2022/06/07 01:04:47;;;;;;;9.57;3.88;;;;;;;18.29;61.27;93880.78;4975573;28;20040;-75
2022/06/07 01:12:41;;;;;;;7.13;4.03;;;;;;;18.37;61.53;93883.25;4983342;28;20040;-76
2022/06/07 01:15:08;;;;;;;7.70;4.30;;;;;;;18.43;61.44;93887.16;4985260;28;20026;-76
2022/06/07 01:17:33;;;;;;;5.70;3.90;;;;;;;18.48;60.95;93888.78;4984462;28;20061;-74
2022/06/07 01:19:59;;;;;;;9.45;3.80;;;;;;;18.49;60.75;93895.72;4985308;28;20038;-76
2022/06/07 01:22:24;;;;;;;6.28;4.20;;;;;;;18.44;60.83;93893.34;4985206;28;20038;-76
2022/06/07 01:24:50;;;;;;;6.03;4.07;;;;;;;18.40;60.46;93881.75;4983951;28;20030;-75
2022/06/07 01:27:16;;;;;;;6.88;4.00;;;;;;;18.39;60.86;93894.41;4984187;28;20473;-75
2022/06/07 01:29:42;;;;;;;6.13;4.38;;;;;;;18.34;60.53;93883.16;4981690;28;20022;-75
2022/06/07 01:32:09;;;;;;;5.45;4.07;;;;;;;18.39;60.75;93896.34;4982627;28;20034;-75
2022/06/07 01:34:37;;;;;;;6.88;4.10;;;;;;;18.31;60.77;93889.28;4981456;28;20034;-75
2022/06/07 01:37:03;;;;;;;8.23;3.92;;;;;;;18.36;60.85;93902.44;4983780;28;20113;-76
2022/06/07 01:42:13;;;;;;;5.25;3.63;;;;;;;18.34;60.93;93899.31;4984306;28;20116;-75
2022/06/07 01:44:42;;;;;;;5.72;3.30;;;;;;;18.33;61.01;93903.94;4984935;28;20500;-75
2022/06/07 01:47:11;;;;;;;8.30;3.58;;;;;;;18.31;60.88;93898.16;4981679;28;20093;-76
2022/06/07 01:49:38;;;;;;;6.45;3.85;;;;;;;18.15;61.25;93881.31;4976456;28;20038;-75
2022/06/07 01:52:06;;;;;;;4.55;3.78;;;;;;;18.24;61.06;93889.16;4978929;28;20034;-75
2022/06/07 01:54:31;;;;;;;4.50;3.20;;;;;;;18.06;60.72;93855.78;4983232;28;20050;-75
2022/06/07 01:56:57;;;;;;;4.72;3.60;;;;;;;18.17;59.73;93881.75;4971764;28;20026;-75
2022/06/07 01:59:23;;;;;;;6.32;3.25;;;;;;;17.95;59.67;93853.69;4984679;28;20646;-75
2022/06/07 02:01:50;;;;;;;4.55;3.35;;;;;;;18.08;59.85;93875.84;4977806;28;20035;-75
2022/06/07 02:04:16;;;;;;;4.07;3.20;;;;;;;17.99;59.58;93862.59;4978807;28;20501;-76
2022/06/07 02:06:41;;;;;;;5.03;2.90;;;;;;;18.03;59.22;93871.53;4979476;28;20038;-76
2022/06/07 02:09:08;;;;;;;8.85;3.30;;;;;;;17.90;59.24;93864.72;4985330;28;20114;-75
2022/06/07 02:11:35;;;;;;;11.18;3.25;;;;;;;17.99;59.14;93881.44;4986749;28;20573;-76
2022/06/07 02:14:01;;;;;;;3.30;3.00;;;;;;;17.78;59.07;93859.50;4984357;28;20089;-75
2022/06/07 02:16:27;;;;;;;3.80;2.95;;;;;;;17.95;58.51;93877.91;4984895;28;20026;-75
2022/06/07 02:18:52;;;;;;;7.15;2.67;;;;;;;17.81;58.28;93868.78;4984512;28;20030;-75
2022/06/07 02:21:21;;;;;;;4.18;2.97;;;;;;;17.75;58.29;93856.75;4986410;28;20034;-75
2022/06/07 02:23:47;;;;;;;3.10;2.70;;;;;;;17.74;58.44;93861.38;4983921;28;20035;-75
2022/06/07 02:26:24;;;;;;;6.82;3.25;;;;;;;17.82;58.49;93876.50;4984606;28;20575;-75
2022/06/07 02:28:53;;;;;;;4.80;3.13;;;;;;;17.74;58.93;93888.25;4981768;28;20045;-75
2022/06/07 02:31:20;;;;;;;6.00;3.13;;;;;;;17.65;58.99;93882.31;4983543;28;20551;-75
2022/06/07 02:33:46;;;;;;;4.05;2.92;;;;;;;17.68;59.09;93889.69;4982220;28;20567;-75
2022/06/07 02:36:12;;;;;;;4.50;3.08;;;;;;;17.71;58.78;93888.19;4984975;28;20026;-74
2022/06/07 02:38:39;;;;;;;5.00;2.67;;;;;;;17.59;58.97;93881.06;4984281;28;20477;-76
2022/06/07 02:41:07;;;;;;;6.50;3.13;;;;;;;17.58;58.91;93879.50;4981824;28;20042;-75
2022/06/07 02:43:32;;;;;;;3.80;2.88;;;;;;;17.67;58.96;93898.09;4987357;28;20038;-75
2022/06/07 02:45:58;;;;;;;3.88;3.05;;;;;;;17.64;58.89;93888.84;4989711;28;20030;-76
2022/06/07 02:48:24;;;;;;;5.10;3.33;;;;;;;17.67;59.12;93890.81;4985765;28;20042;-76
2022/06/07 02:50:52;;;;;;;5.88;3.45;;;;;;;17.53;58.98;93872.50;4987087;28;20064;-75
2022/06/07 02:53:18;;;;;;;7.57;3.08;;;;;;;17.66;58.57;93889.25;4985447;28;20082;-75
2022/06/07 02:55:43;;;;;;;3.88;3.00;;;;;;;17.47;58.80;93865.06;4985083;28;20515;-75
2022/06/07 02:58:09;;;;;;;5.40;2.88;;;;;;;17.61;58.89;93889.53;4987184;28;20042;-75
2022/06/07 03:00:34;;;;;;;4.68;3.15;;;;;;;17.36;59.07;93872.91;4987211;28;20050;-76
2022/06/07 03:02:59;;;;;;;3.92;2.72;;;;;;;17.40;59.18;93887.22;4985401;28;20045;-75
2022/06/07 03:05:25;;;;;;;5.90;3.28;;;;;;;17.50;59.42;93908.13;4984286;28;20453;-75
2022/06/07 03:07:50;;;;;;;3.92;3.03;;;;;;;17.45;59.82;93913.81;4987073;28;20539;-76
2022/06/07 03:10:17;;;;;;;5.18;3.10;;;;;;;17.43;60.04;93907.22;4984869;28;20125;-75
2022/06/07 03:12:43;;;;;;;4.47;3.08;;;;;;;17.45;60.45;93913.03;4978233;28;20041;-75
2022/06/07 03:15:09;;;;;;;3.42;2.97;;;;;;;17.37;60.84;93901.34;4988321;28;20026;-75
2022/06/07 03:17:35;;;;;;;4.88;2.83;;;;;;;17.43;60.83;93905.31;4982576;28;20081;-75
2022/06/07 03:20:01;;;;;;;6.47;2.83;;;;;;;17.47;60.99;93905.38;4987981;28;20132;-74
2022/06/07 03:22:27;;;;;;;5.00;3.20;;;;;;;17.64;61.60;93934.56;4986458;28;20045;-75
2022/06/07 03:24:52;;;;;;;3.90;3.47;;;;;;;17.66;61.26;93926.91;4986640;28;20453;-76
2022/06/07 03:27:18;;;;;;;9.40;4.15;;;;;;;17.74;61.62;93933.22;4983236;28;20034;-75
2022/06/07 03:29:43;;;;;;;8.23;4.82;;;;;;;17.73;61.79;93928.97;4987864;28;20048;-75
2022/06/07 03:32:09;;;;;;;8.88;4.93;;;;;;;17.66;62.09;93915.34;4985812;28;20038;-76
2022/06/07 03:34:35;;;;;;;6.10;4.45;;;;;;;17.75;62.12;93913.22;4987154;28;20042;-75
2022/06/07 03:37:01;;;;;;;5.22;4.30;;;;;;;17.88;62.78;93926.19;4983735;28;20046;-75
2022/06/07 03:39:27;;;;;;;9.05;4.95;;;;;;;17.86;62.70;93928.44;4984035;28;20033;-75
2022/06/07 03:41:53;;;;;;;8.57;4.72;;;;;;;17.80;63.01;93927.16;4986596;28;20026;-76
2022/06/07 03:44:18;;;;;;;6.43;4.47;;;;;;;17.89;62.75;93930.41;4982867;28;20039;-74
2022/06/07 03:46:45;;;;;;;5.82;4.45;;;;;;;17.92;62.76;93927.03;4985743;28;20043;-76
2022/06/07 03:49:11;;;;;;;6.38;4.88;;;;;;;17.50;63.93;93920.84;4987229;28;20105;-75
2022/06/07 03:51:36;;;;;;;6.25;4.35;;;;;;;17.20;65.52;93933.25;4986655;28;20474;-75
2022/06/07 03:54:04;;;;;;;6.07;4.47;;;;;;;16.99;65.95;93907.44;4985423;28;20050;-75
2022/06/07 03:56:30;;;;;;;8.32;5.10;;;;;;;17.17;65.64;93932.03;4975859;28;20205;-76
2022/06/07 03:58:57;;;;;;;9.85;4.65;;;;;;;17.41;65.26;93931.00;4985710;28;20089;-76
2022/06/07 04:01:24;;;;;;;6.88;4.75;;;;;;;17.64;64.09;93931.09;4984301;28;20036;-75
2022/06/07 04:03:52;;;;;;;5.85;4.38;;;;;;;17.71;63.63;93933.91;4990090;28;20125;-76
2022/06/07 04:06:27;;;;;;;10.25;4.57;;;;;;;17.71;63.26;93926.63;4986122;28;20712;-75
2022/06/07 04:08:53;;;;;;;5.93;4.90;;;;;;;17.76;63.47;93934.41;4985225;28;20555;-75
2022/06/07 04:11:21;;;;;;;11.10;5.20;;;;;;;17.73;63.60;93928.97;4974802;28;20398;-75
2022/06/07 04:13:48;;;;;;;10.85;4.78;;;;;;;17.86;63.39;93931.13;4981888;28;20035;-76
2022/06/07 04:16:17;;;;;;;5.95;4.50;;;;;;;17.82;63.54;93927.59;4985434;28;20457;-75
2022/06/07 04:18:43;;;;;;;7.18;4.72;;;;;;;17.84;63.53;93935.34;4987069;28;20049;-76
2022/06/07 04:21:09;;;;;;;6.70;5.07;;;;;;;17.95;63.11;93939.00;4984338;28;20473;-75
2022/06/07 04:23:36;;;;;;;7.50;4.80;;;;;;;17.95;62.84;93934.41;4984703;28;20045;-75
2022/06/07 04:26:32;;;;;;;8.82;5.00;;;;;;;17.92;63.34;93948.56;4984385;28;20493;-75
2022/06/07 04:28:58;;;;;;;7.80;5.40;;;;;;;17.79;63.22;93928.31;4983696;28;20076;-75
2022/06/07 04:31:26;;;;;;;8.90;5.28;;;;;;;17.77;64.13;93938.66;4982946;28;20591;-75
2022/06/07 04:33:56;;;;;;;7.53;5.38;;;;;;;17.94;63.52;93940.91;4985468;28;20088;-75
2022/06/07 04:36:23;;;;;;;7.60;5.57;;;;;;;18.08;62.98;93945.03;4987911;28;20439;-76
2022/06/07 04:38:50;;;;;;;12.75;5.95;;;;;;;17.99;63.21;93937.94;4986919;28;20097;-75
2022/06/07 04:41:18;;;;;;;10.50;6.35;;;;;;;18.06;63.27;93940.00;4984202;28;20309;-75
2022/06/07 04:43:45;;;;;;;9.40;5.20;;;;;;;17.87;63.53;93908.50;4981205;28;20517;-75
2022/06/07 04:46:15;;;;;;;8.32;6.32;;;;;;;17.78;64.34;93932.16;4983983;28;20046;-75
2022/06/07 04:48:43;;;;;;;8.85;5.13;;;;;;;18.06;63.73;93941.91;4986416;28;20050;-76
2022/06/07 04:51:12;;;;;;;9.63;5.80;;;;;;;17.96;63.90;93938.66;4982890;28;20149;-76
2022/06/07 04:53:37;;;;;;;7.57;6.18;;;;;;;18.19;62.83;93933.31;4983038;28;20046;-75
2022/06/07 04:56:35;;;;;;;7.00;5.60;;;;;;;18.18;62.80;93936.38;4986052;28;20034;-75
2022/06/07 04:59:02;;;;;;;13.35;6.35;;;;;;;18.10;63.07;93919.31;4984221;28;20387;-76
2022/06/07 05:01:30;;;;;;;9.32;7.15;;;;;;;18.25;63.05;93944.56;4987562;28;20034;-76
2022/06/07 05:03:55;;;;;;;9.13;6.57;;;;;;;17.66;64.27;93934.97;4985093;28;20049;-75
2022/06/07 05:06:31;;;;;;;10.00;6.80;;;;;;;17.90;64.43;93956.19;4983069;28;20377;-75
2022/06/07 05:09:00;;;;;;;11.77;8.80;;;;;;;17.63;65.64;93956.41;4986128;28;20100;-75
2022/06/07 05:11:26;;;;;;;21.35;7.30;;;;;;;17.52;65.83;93966.94;4986142;28;20066;-76
2022/06/07 05:13:56;;;;;;;11.45;8.32;;;;;;;17.60;66.34;93964.06;4982179;28;20093;-75
2022/06/07 05:16:22;;;;;;;10.13;7.78;;;;;;;17.72;65.41;93955.06;4985404;28;20527;-76
2022/06/07 05:18:49;;;;;;;11.52;7.80;;;;;;;17.89;64.36;93961.94;4982831;28;20067;-75
2022/06/07 05:21:15;;;;;;;11.57;7.68;;;;;;;18.01;63.86;93967.97;4975062;28;20030;-75
2022/06/07 05:23:40;;;;;;;10.65;7.38;;;;;;;17.98;63.24;93941.78;4985423;28;20092;-75
2022/06/07 05:26:10;;;;;;;11.30;8.00;;;;;;;17.99;63.42;93964.84;4982467;28;20046;-75
2022/06/07 05:28:37;;;;;;;12.77;8.05;;;;;;;17.53;65.76;93950.47;4984964;28;20125;-75
2022/06/07 05:31:03;;;;;;;9.55;7.82;;;;;;;17.54;66.49;93962.00;4985549;28;20308;-75
2022/06/07 05:33:28;;;;;;;10.80;7.63;;;;;;;17.86;65.91;93970.72;4984220;28;20025;-76
2022/06/07 05:35:54;;;;;;;13.48;8.23;;;;;;;17.84;65.31;93946.88;4986293;28;20026;-75
2022/06/07 05:38:21;;;;;;;14.20;8.52;;;;;;;17.70;66.40;93978.09;4983253;28;20126;-74
2022/06/07 05:40:46;;;;;;;12.57;8.15;;;;;;;17.65;66.69;93964.94;4982086;28;20112;-74
2022/06/07 05:43:12;;;;;;;14.75;8.88;;;;;;;17.66;66.21;93967.25;4983908;28;20500;-75
2022/06/07 05:45:38;;;;;;;13.60;9.18;;;;;;;17.42;67.45;93965.59;4982811;28;20068;-74
2022/06/07 05:48:05;;;;;;;14.35;8.75;;;;;;;17.55;67.62;93958.19;4983634;28;20069;-74
2022/06/07 05:50:30;;;;;;;14.48;9.27;;;;;;;17.43;67.49;93952.94;4985539;28;20069;-74
2022/06/07 05:52:55;;;;;;;18.08;11.85;;;;;;;17.71;66.00;93942.75;4981591;28;20133;-74
2022/06/07 05:55:21;;;;;;;14.18;10.07;;;;;;;17.83;66.01;93961.44;4983589;28;20034;-74
2022/06/07 05:57:49;;;;;;;13.23;9.68;;;;;;;17.90;65.51;93953.50;4983559;28;20501;-74
2022/06/07 06:00:16;;;;;;;16.33;10.27;;;;;;;17.80;66.78;93962.13;4985306;28;20037;-74
2022/06/07 06:02:42;;;;;;;20.38;11.25;;;;;;;17.56;66.96;93968.59;4974530;28;20023;-74
2022/06/07 06:05:10;;;;;;;17.83;10.80;;;;;;;17.48;66.76;93955.34;4980502;28;20516;-75
2022/06/07 06:07:36;;;;;;;14.52;9.75;;;;;;;17.44;66.72;93951.81;4984418;28;20115;-75
2022/06/07 06:10:20;;;;;;;19.02;11.05;;;;;;;17.54;66.99;93959.31;4986953;28;20498;-74
2022/06/07 06:12:45;;;;;;;18.20;11.13;;;;;;;17.63;66.40;93962.59;4982485;28;20053;-74
2022/06/07 06:15:11;;;;;;;23.50;11.52;;;;;;;18.01;65.94;93965.28;4985660;28;20049;-75
2022/06/07 06:17:36;;;;;;;15.93;11.10;;;;;;;18.16;64.90;93969.03;4981499;28;20034;-74
2022/06/07 06:20:02;;;;;;;18.85;13.00;;;;;;;17.99;65.81;93964.09;4973076;28;20490;-74
2022/06/07 06:22:28;;;;;;;15.50;11.00;;;;;;;17.86;66.73;93960.72;4977881;28;20046;-73
2022/06/07 06:24:54;;;;;;;18.92;11.80;;;;;;;17.87;66.27;93962.28;4980404;28;20156;-74
2022/06/07 06:27:19;;;;;;;16.45;10.73;;;;;;;18.02;66.62;93949.91;4984246;28;20041;-74
2022/06/07 06:29:45;;;;;;;17.60;11.35;;;;;;;18.16;66.27;93946.69;4982155;28;20407;-74
2022/06/07 06:32:10;;;;;;;15.70;9.60;;;;;;;18.02;67.44;93931.88;4982361;28;20034;-74
2022/06/07 06:34:36;;;;;;;14.93;9.38;;;;;;;17.71;69.19;93947.34;4982524;28;21069;-74
2022/06/07 06:37:01;;;;;;;14.07;9.77;;;;;;;18.06;69.23;93942.69;4983124;28;20167;-74
2022/06/07 06:39:27;;;;;;;18.77;12.13;;;;;;;17.77;68.34;93930.59;4979195;28;20026;-74
2022/06/07 06:41:53;;;;;;;15.35;9.48;;;;;;;17.78;67.86;93932.16;4981098;28;20030;-74
2022/06/07 06:44:18;;;;;;;14.95;9.13;;;;;;;17.63;68.18;93930.31;4980715;28;20038;-74
2022/06/07 06:46:46;;;;;;;19.55;10.50;;;;;;;17.84;67.26;93922.66;4982491;28;20030;-74
2022/06/07 06:49:14;;;;;;;17.00;10.90;;;;;;;18.07;66.89;93943.47;4981082;28;20521;-74
2022/06/07 06:51:41;;;;;;;15.73;10.05;;;;;;;18.32;64.94;93926.63;4976474;28;20043;-74
2022/06/07 06:54:09;;;;;;;16.38;11.60;;;;;;;18.57;64.53;93912.78;4977470;28;20030;-75
2022/06/07 06:56:34;;;;;;;15.13;8.77;;;;;;;18.92;63.94;93939.53;4976756;28;20038;-74
2022/06/07 06:59:00;;;;;;;15.45;10.27;;;;;;;18.45;64.67;93916.44;4977872;28;20045;-74
2022/06/07 07:01:31;;;;;;;19.20;11.38;;;;;;;18.87;65.42;93927.91;4976548;28;20160;-74
2022/06/07 07:03:57;;;;;;;15.38;10.38;;;;;;;19.15;64.40;93930.25;4978835;28;20100;-73
2022/06/07 07:06:23;;;;;;;16.75;10.32;;;;;;;19.25;63.49;93928.84;4977919;28;20018;-73
2022/06/07 07:08:49;;;;;;;15.05;10.45;;;;;;;19.48;62.14;93924.19;4979904;28;20053;-75
2022/06/07 07:11:20;;;;;;;14.65;11.38;;;;;;;19.59;61.85;93927.00;4977586;28;20636;-74
2022/06/07 07:13:47;;;;;;;17.45;10.52;;;;;;;19.58;61.10;93923.53;4977692;28;20039;-74
2022/06/07 07:16:16;;;;;;;14.77;9.38;;;;;;;19.19;63.17;93924.91;4978778;28;20066;-75
2022/06/07 07:18:42;;;;;;;15.25;10.25;;;;;;;19.02;64.01;93918.13;4978618;28;20038;-74
2022/06/07 07:21:15;;;;;;;17.83;8.82;;;;;;;18.66;65.33;93922.19;4975742;28;20050;-75
2022/06/07 07:23:41;;;;;;;14.05;8.45;;;;;;;18.92;65.53;93920.69;4976980;28;20048;-74
2022/06/07 07:26:11;;;;;;;11.93;8.68;;;;;;;18.99;65.51;93918.06;4979408;28;20453;-74
2022/06/07 07:28:38;;;;;;;14.77;10.23;;;;;;;19.27;64.62;93918.47;4980781;28;20500;-74
2022/06/07 07:31:06;;;;;;;22.60;11.73;;;;;;;19.41;64.41;93923.28;4982254;28;20038;-74
2022/06/07 07:33:32;;;;;;;15.45;10.68;;;;;;;19.02;64.35;93917.38;4983887;28;20045;-74
2022/06/07 07:36:01;;;;;;;18.42;10.60;;;;;;;18.85;64.78;93903.25;4980562;28;20537;-74
2022/06/07 07:38:26;;;;;;;18.33;10.48;;;;;;;18.94;65.41;93894.91;4979984;28;20608;-74
2022/06/07 07:40:52;;;;;;;22.77;12.38;;;;;;;18.97;65.10;93914.97;4978712;28;20382;-74
2022/06/07 07:43:18;;;;;;;22.13;11.70;;;;;;;19.11;64.49;93899.00;4983897;28;20081;-75
2022/06/07 07:45:44;;;;;;;16.25;11.07;;;;;;;19.30;63.18;93896.19;4983176;28;20161;-74
2022/06/07 07:48:10;;;;;;;16.67;8.93;;;;;;;19.12;62.43;93897.84;4982770;28;20452;-74
2022/06/07 07:50:37;;;;;;;13.43;8.40;;;;;;;19.21;61.26;93903.75;4981308;28;20034;-75
2022/06/07 07:53:02;;;;;;;16.35;8.60;;;;;;;19.17;61.64;93903.69;4984077;28;20038;-74
2022/06/07 07:55:27;;;;;;;12.07;8.50;;;;;;;19.22;61.20;93878.34;4982005;28;20038;-74
2022/06/07 07:57:53;;;;;;;9.52;7.32;;;;;;;19.49;60.97;93887.97;4983377;28;20700;-75
2022/06/07 08:00:19;;;;;;;10.27;7.38;;;;;;;19.74;61.37;93889.03;4981490;28;20032;-74
2022/06/07 08:02:44;;;;;;;19.27;9.57;;;;;;;19.62;60.35;93886.56;4982590;28;20456;-74
2022/06/07 08:05:10;;;;;;;11.90;8.68;;;;;;;19.81;59.99;93887.53;4982191;28;20149;-74
2022/06/07 08:07:36;;;;;;;14.35;8.68;;;;;;;19.67;60.25;93872.75;4978841;28;20516;-74
2022/06/07 08:10:03;;;;;;;12.95;8.18;;;;;;;19.69;58.52;93865.09;4978615;28;20084;-74
2022/06/07 08:12:29;;;;;;;10.25;7.35;;;;;;;19.80;56.49;93872.53;4980872;28;20042;-73
2022/06/07 08:14:55;;;;;;;10.00;6.88;;;;;;;19.84;56.43;93866.00;4979928;28;20114;-75
2022/06/07 08:17:20;;;;;;;9.35;5.57;;;;;;;19.77;56.58;93865.16;4983429;28;20191;-74
2022/06/07 08:19:46;;;;;;;266.77;91.18;;;;;;;19.55;57.03;93851.44;4979486;28;20465;-74
2022/06/07 08:22:11;;;;;;;43.42;20.70;;;;;;;19.89;57.47;93856.81;4973600;28;20571;-75
2022/06/07 08:24:37;;;;;;;10.10;5.65;;;;;;;19.83;54.30;93864.44;4978854;28;20034;-74
2022/06/07 08:27:03;;;;;;;5.82;4.40;;;;;;;19.84;53.59;93863.31;4979194;28;20041;-75
2022/06/07 08:29:29;;;;;;;5.40;3.63;;;;;;;19.54;52.44;93836.41;4979807;28;20117;-74
2022/06/07 08:31:54;;;;;;;7.85;4.65;;;;;;;19.91;53.89;93852.56;4980477;28;20711;-74
2022/06/07 08:39:49;;;;;;;4.60;3.43;;;;;;;20.02;50.63;93850.75;4981432;28;20064;-75
2022/06/07 08:42:17;;;;;;;9.52;3.30;;;;;;;20.04;50.58;93842.31;4980088;28;20038;-75
2022/06/07 08:45:19;;;;;;;5.57;3.80;;;;;;;20.07;51.55;93847.72;4979615;28;20034;-74
2022/06/07 08:47:44;;;;;;;15.45;9.75;;;;;;;20.40;52.10;93838.78;4979569;28;20049;-75
2022/06/07 08:50:36;;;;;;;4.53;3.42;;;;;;;20.38;51.51;93841.09;4980796;28;20501;-75
2022/06/07 08:53:12;;;;;;;5.80;3.47;;;;;;;20.41;49.34;93829.53;4970385;28;20120;-75
2022/06/07 08:55:57;;;;;;;2.70;2.50;;;;;;;20.31;43.67;93835.63;4981014;28;20523;-74
2022/06/07 08:58:27;;;;;;;2.72;2.08;;;;;;;20.24;47.20;93827.44;4983229;28;20041;-74
2022/06/07 09:00:58;;;;;;;2.80;1.98;;;;;;;20.11;44.43;93812.66;4981698;28;20061;-74
2022/06/07 09:03:41;;;;;;;5.63;2.47;;;;;;;20.43;43.39;93824.53;5000251;28;20026;-74
2022/06/07 09:06:18;;;;;;;2.85;2.13;;;;;;;20.39;44.07;93822.94;4980762;28;20030;-75
2022/06/07 09:08:50;;;;;;;2.65;1.88;;;;;;;20.37;41.89;93823.31;4980570;28;20030;-74
2022/06/07 09:14:17;;;;;;;3.92;2.25;;;;;;;20.72;44.11;93816.63;4980641;28;20053;-75
2022/06/07 09:16:43;;;;;;;2.17;1.73;;;;;;;20.90;41.37;93815.59;4976673;28;20054;-74
2022/06/07 09:19:18;;;;;;;4.18;3.00;;;;;;;20.76;42.14;93812.00;4980915;28;20040;-74
2022/06/07 09:21:45;;;;;;;3.35;2.15;;;;;;;20.58;43.64;93812.66;4973738;28;20567;-74
2022/06/07 09:24:18;;;;;;;4.15;3.47;;;;;;;20.57;42.54;93811.13;4983931;28;20026;-74
2022/06/07 09:26:43;;;;;;;6.10;4.00;;;;;;;20.29;42.73;93810.16;4984811;28;20504;-75
2022/06/07 09:29:18;;;;;;;6.22;3.92;;;;;;;20.45;43.02;93803.31;4988433;28;20041;-74
2022/06/07 09:31:46;;;;;;;4.90;3.78;;;;;;;20.31;44.21;93814.00;4986116;28;20459;-74
2022/06/07 09:34:25;;;;;;;4.22;3.60;;;;;;;20.26;43.82;93808.94;4979471;28;20046;-73
2022/06/07 09:37:14;;;;;;;4.53;3.17;;;;;;;20.49;44.17;93798.69;4982770;28;20042;-75
2022/06/07 09:39:42;;;;;;;5.38;2.90;;;;;;;20.37;45.59;93784.72;4978057;28;20037;-74
2022/06/07 09:42:13;;;;;;;3.80;3.40;;;;;;;20.53;45.09;93799.50;4982565;28;20030;-75
2022/06/07 09:44:54;;;;;;;3.58;3.17;;;;;;;20.69;43.08;93795.72;4980521;28;20050;-74
2022/06/07 09:47:25;;;;;;;5.22;3.50;;;;;;;20.72;44.67;93784.19;4978731;28;20129;-75
2022/06/07 09:49:56;;;;;;;7.15;3.15;;;;;;;20.79;44.33;93795.03;4980658;28;20049;-74
2022/06/07 09:52:31;;;;;;;5.93;3.47;;;;;;;20.82;42.58;93768.03;4984442;28;20085;-73
2022/06/07 09:55:03;;;;;;;3.90;3.50;;;;;;;21.18;44.93;93787.91;4975584;28;20500;-75
2022/06/07 09:57:37;;;;;;;4.43;3.70;;;;;;;21.15;42.56;93780.56;4974643;28;20034;-74
2022/06/07 10:00:20;;;;;;;4.38;3.05;;;;;;;21.09;42.85;93775.88;4982499;28;20025;-74
2022/06/07 10:02:48;;;;;;;4.95;3.72;;;;;;;21.08;42.96;93775.13;4979502;28;20134;-74
2022/06/07 10:05:29;;;;;;;6.72;4.32;;;;;;;21.21;41.80;93773.63;4978190;28;20046;-74
2022/06/07 10:08:22;;;;;;;5.88;4.25;;;;;;;21.21;41.18;93770.16;4966203;28;20108;-74
2022/06/07 10:10:59;;;;;;;4.30;3.40;;;;;;;21.41;42.34;93749.75;4980120;28;20390;-74
2022/06/07 10:13:40;;;;;;;4.90;3.83;;;;;;;21.59;42.11;93758.69;4978177;28;20042;-74
2022/06/07 10:16:24;;;;;;;4.90;3.95;;;;;;;21.26;43.31;93757.03;4960577;28;20035;-74
2022/06/07 10:18:56;;;;;;;5.93;3.75;;;;;;;21.34;42.94;93764.00;4963098;28;20046;-74
2022/06/07 10:21:45;;;;;;;4.05;3.50;;;;;;;21.52;43.30;93761.34;4975481;28;20116;-74
2022/06/07 10:24:38;;;;;;;4.07;3.55;;;;;;;21.77;42.76;93747.88;4977812;28;20034;-74
2022/06/07 10:27:30;;;;;;;8.65;4.25;;;;;;;21.89;42.57;93742.13;4959169;28;20054;-74
2022/06/07 10:30:23;;;;;;;4.20;3.50;;;;;;;22.03;39.55;93744.81;4973180;28;20105;-75
2022/06/07 10:32:54;;;;;;;5.97;4.97;;;;;;;22.08;42.55;93739.00;4949820;28;20035;-74
2022/06/07 10:35:29;;;;;;;4.15;3.47;;;;;;;21.69;43.77;93749.03;4946779;28;20047;-74
2022/06/07 10:38:20;;;;;;;5.60;3.92;;;;;;;21.44;43.93;93744.34;4968894;28;20061;-74
2022/06/07 10:40:54;;;;;;;6.97;3.10;;;;;;;21.14;44.36;93743.84;4955746;28;20049;-75
2022/06/07 10:43:24;;;;;;;7.00;3.88;;;;;;;21.10;42.38;93737.66;4948580;28;20183;-74
2022/06/07 10:45:54;;;;;;;6.57;4.13;;;;;;;21.28;42.29;93733.06;4945528;28;20532;-75
2022/06/07 10:48:42;;;;;;;6.63;3.72;;;;;;;21.49;43.90;93723.47;4947922;28;20525;-74
2022/06/07 10:52:20;;;;;;;6.10;3.65;;;;;;;21.61;43.22;93715.03;4948247;28;20038;-74
2022/06/07 10:54:02;;;;;;;4.20;3.53;;;;;;;21.78;44.46;93695.31;4976817;28;20483;-74
2022/06/07 10:56:33;;;;;;;7.50;3.65;;;;;;;22.03;41.97;93706.91;4972560;28;20045;-74
2022/06/07 10:59:02;;;;;;;5.20;3.40;;;;;;;22.26;41.99;93699.16;4980722;28;20038;-74
2022/06/07 11:01:32;;;;;;;4.50;3.47;;;;;;;22.26;43.33;93709.22;4979219;28;20437;-74
2022/06/07 11:09:19;;;;;;;5.25;3.17;;;;;;;22.00;44.74;93664.34;4984291;28;20134;-74
2022/06/07 11:09:54;;;;;;;3.45;3.15;;;;;;;22.29;42.40;93687.53;4984548;28;20122;-75
2022/06/07 11:12:25;;;;;;;4.05;2.97;;;;;;;22.46;40.69;93698.75;4973159;28;20018;-74
2022/06/07 11:15:18;;;;;;;3.75;2.83;;;;;;;21.98;42.73;93706.53;4960076;28;20691;-74
2022/06/07 11:17:48;;;;;;;3.58;3.25;;;;;;;21.72;43.30;93707.66;4981581;28;20126;-74
2022/06/07 11:20:13;;;;;;;4.03;3.30;;;;;;;21.76;42.89;93705.72;4984160;28;20054;-75
2022/06/07 11:22:54;;;;;;;4.65;3.40;;;;;;;21.70;43.88;93699.19;4980969;28;20039;-74
2022/06/07 11:25:38;;;;;;;4.22;3.30;;;;;;;21.88;43.10;93708.84;4987279;28;20129;-74
2022/06/07 11:28:18;;;;;;;4.20;3.22;;;;;;;22.01;43.50;93695.69;4989208;28;20042;-74
2022/06/07 11:30:47;;;;;;;4.07;3.67;;;;;;;22.06;42.16;93700.72;4983326;28;20034;-74
2022/06/07 11:33:30;;;;;;;4.53;3.30;;;;;;;22.07;40.75;93699.56;4986525;28;20442;-75
2022/06/07 11:36:24;;;;;;;4.75;3.45;;;;;;;22.00;40.47;93696.84;4987811;28;20628;-74
2022/06/07 11:38:55;;;;;;;3.53;3.17;;;;;;;22.46;45.51;93694.09;4980600;28;20046;-75
2022/06/07 11:41:41;;;;;;;4.43;3.05;;;;;;;22.62;41.24;93690.97;4984908;28;20400;-75
2022/06/07 11:44:12;;;;;;;3.03;2.72;;;;;;;22.60;39.75;93691.34;4983432;28;20063;-75
2022/06/07 11:46:57;;;;;;;3.10;2.80;;;;;;;22.83;39.32;93674.59;4983882;28;20133;-75
2022/06/07 11:49:27;;;;;;;3.25;2.65;;;;;;;22.59;40.31;93686.31;4983013;28;20061;-74
2022/06/07 11:51:55;;;;;;;3.47;2.97;;;;;;;22.38;40.57;93675.53;4981509;28;20185;-74
2022/06/07 11:54:44;;;;;;;3.33;2.70;;;;;;;22.18;38.89;93670.53;4986776;28;20033;-74
2022/06/07 11:57:39;;;;;;;5.72;4.25;;;;;;;21.93;40.00;93672.47;4985934;28;20037;-73
2022/06/07 12:00:17;;;;;;;3.80;2.92;;;;;;;21.98;40.91;93671.31;4986565;28;20046;-75